createdAt,value
2023-08-10T00:00:43.602Z,0.00
2023-08-10T00:01:43.489Z,0.00
2023-08-10T00:02:43.604Z,0.00
2023-08-10T00:03:43.519Z,0.00
2023-08-10T00:04:43.433Z,0.00
2023-08-10T00:05:43.470Z,0.00
2023-08-10T00:06:43.534Z,0.00
2023-08-10T00:07:43.410Z,0.00
2023-08-10T00:08:43.395Z,0.00
2023-08-10T00:09:43.391Z,0.00
2023-08-10T00:10:43.355Z,0.00
2023-08-10T00:11:43.372Z,0.00
2023-08-10T00:12:43.389Z,0.00
2023-08-10T00:13:43.415Z,0.00
2023-08-10T00:14:43.378Z,0.00
2023-08-10T00:15:43.382Z,0.00
2023-08-10T00:16:43.379Z,0.00
2023-08-10T00:17:43.468Z,0.00
2023-08-10T00:18:43.335Z,0.00
2023-08-10T00:19:43.320Z,0.00
2023-08-10T00:20:43.300Z,0.00
2023-08-10T00:21:43.364Z,0.00
2023-08-10T00:22:43.318Z,0.00
2023-08-10T00:23:43.435Z,0.00
2023-08-10T00:24:43.261Z,0.00
2023-08-10T00:25:43.338Z,0.00
2023-08-10T00:26:43.300Z,0.00
2023-08-10T00:27:43.379Z,0.00
2023-08-10T00:28:43.375Z,0.00
2023-08-10T00:29:43.248Z,0.00
2023-08-10T00:30:43.958Z,0.00
2023-08-10T00:31:43.245Z,0.00
2023-08-10T00:32:43.237Z,0.00
2023-08-10T00:33:43.222Z,0.00
2023-08-10T00:34:43.836Z,0.00
2023-08-10T00:35:43.112Z,0.00
2023-08-10T00:36:43.221Z,0.00
2023-08-10T00:37:43.085Z,0.00
2023-08-10T00:38:43.316Z,0.00
2023-08-10T00:39:43.149Z,0.00
2023-08-10T00:40:43.798Z,0.00
2023-08-10T00:41:43.111Z,0.00
2023-08-10T00:42:43.074Z,0.00
2023-08-10T00:43:43.096Z,0.00
2023-08-10T00:44:43.092Z,0.00
2023-08-10T00:45:42.978Z,0.00
2023-08-10T00:46:42.974Z,0.00
2023-08-10T00:47:43.151Z,0.00
2023-08-10T00:48:42.982Z,0.00
2023-08-10T00:49:42.949Z,0.00
2023-08-10T00:50:46.789Z,0.00
2023-08-10T00:51:42.892Z,0.00
2023-08-10T00:52:42.942Z,0.00
2023-08-10T00:53:42.868Z,0.00
2023-08-10T00:54:42.949Z,0.00
2023-08-10T00:55:42.968Z,0.00
2023-08-10T00:56:42.937Z,0.00
2023-08-10T00:57:42.879Z,0.00
2023-08-10T00:58:42.873Z,0.00
2023-08-10T00:59:43.437Z,0.00
2023-08-10T01:00:42.900Z,0.00
2023-08-10T01:01:43.380Z,0.00
2023-08-10T01:02:42.857Z,0.00
2023-08-10T01:03:43.162Z,0.00
2023-08-10T01:04:42.835Z,0.00
2023-08-10T01:05:42.807Z,0.00
2023-08-10T01:06:42.804Z,0.00
2023-08-10T01:07:42.831Z,0.00
2023-08-10T01:08:42.787Z,0.00
2023-08-10T01:09:42.963Z,0.00
2023-08-10T01:10:42.842Z,0.00
2023-08-10T01:11:43.475Z,0.00
2023-08-10T01:12:42.715Z,0.00
2023-08-10T01:13:42.778Z,0.00
2023-08-10T01:14:42.747Z,0.00
2023-08-10T01:15:42.725Z,0.00
2023-08-10T01:16:42.835Z,0.00
2023-08-10T01:17:43.394Z,0.00
2023-08-10T01:18:42.826Z,0.00
2023-08-10T01:19:42.693Z,0.00
2023-08-10T01:20:42.720Z,0.00
2023-08-10T01:21:42.728Z,0.00
2023-08-10T01:22:42.693Z,0.00
2023-08-10T01:23:42.624Z,0.00
2023-08-10T01:24:42.752Z,0.00
2023-08-10T01:25:42.731Z,0.00
2023-08-10T01:26:42.630Z,0.00
2023-08-10T01:27:42.614Z,0.00
2023-08-10T01:28:42.671Z,0.00
2023-08-10T01:29:42.776Z,0.00
2023-08-10T01:30:42.746Z,0.00
2023-08-10T01:31:42.565Z,0.00
2023-08-10T01:32:42.712Z,0.00
2023-08-10T01:33:42.541Z,0.00
2023-08-10T01:34:42.921Z,0.00
2023-08-10T01:35:42.480Z,0.00
2023-08-10T01:36:42.547Z,0.00
2023-08-10T01:37:42.522Z,0.00
2023-08-10T01:38:42.588Z,0.00
2023-08-10T01:39:42.518Z,0.00
2023-08-10T01:40:42.494Z,0.00
2023-08-10T01:41:42.898Z,0.00
2023-08-10T01:42:42.450Z,0.00
2023-08-10T01:43:42.418Z,0.00
2023-08-10T01:44:42.391Z,0.00
2023-08-10T01:45:42.499Z,0.00
2023-08-10T01:46:42.426Z,0.00
2023-08-10T01:47:42.523Z,0.00
2023-08-10T01:48:44.259Z,0.00
2023-08-10T01:49:42.394Z,0.00
2023-08-10T01:50:42.385Z,0.00
2023-08-10T01:51:42.479Z,0.00
2023-08-10T01:52:42.384Z,0.00
2023-08-10T01:53:42.346Z,0.00
2023-08-10T01:54:42.341Z,0.00
2023-08-10T01:55:42.386Z,0.00
2023-08-10T01:56:42.282Z,0.00
2023-08-10T01:57:42.300Z,0.00
2023-08-10T01:58:42.320Z,0.00
2023-08-10T01:59:42.396Z,0.00
2023-08-10T02:00:42.277Z,0.00
2023-08-10T02:01:42.406Z,0.00
2023-08-10T02:02:42.315Z,0.00
2023-08-10T02:03:42.318Z,0.00
2023-08-10T02:04:42.251Z,0.00
2023-08-10T02:05:42.223Z,0.00
2023-08-10T02:06:42.797Z,0.00
2023-08-10T02:07:42.284Z,0.00
2023-08-10T02:08:42.213Z,0.00
2023-08-10T02:09:42.214Z,0.00
2023-08-10T02:10:42.227Z,0.00
2023-08-10T02:11:42.126Z,0.00
2023-08-10T02:12:42.220Z,0.00
2023-08-10T02:13:42.236Z,0.00
2023-08-10T02:14:42.220Z,0.00
2023-08-10T02:15:42.112Z,0.00
2023-08-10T02:16:42.185Z,0.00
2023-08-10T02:17:42.574Z,0.00
2023-08-10T02:18:42.106Z,0.00
2023-08-10T02:19:42.067Z,0.00
2023-08-10T02:20:42.036Z,0.00
2023-08-10T02:21:42.194Z,0.00
2023-08-10T02:22:42.053Z,0.00
2023-08-10T02:23:42.072Z,0.00
2023-08-10T02:24:41.992Z,0.00
2023-08-10T02:25:42.011Z,0.00
2023-08-10T02:26:42.080Z,0.00
2023-08-10T02:27:42.012Z,0.00
2023-08-10T02:28:42.023Z,0.00
2023-08-10T02:29:42.023Z,0.00
2023-08-10T02:30:41.950Z,0.00
2023-08-10T02:31:42.013Z,0.00
2023-08-10T02:32:41.975Z,0.00
2023-08-10T02:33:41.898Z,0.00
2023-08-10T02:34:41.975Z,0.00
2023-08-10T02:35:41.932Z,0.00
2023-08-10T02:36:41.887Z,0.00
2023-08-10T02:37:41.956Z,0.00
2023-08-10T02:38:41.948Z,0.00
2023-08-10T02:39:41.906Z,0.00
2023-08-10T02:40:41.879Z,0.00
2023-08-10T02:41:41.851Z,0.00
2023-08-10T02:42:41.884Z,0.00
2023-08-10T02:43:41.887Z,0.00
2023-08-10T02:44:41.853Z,0.00
2023-08-10T02:45:41.910Z,0.00
2023-08-10T02:46:41.923Z,0.00
2023-08-10T02:47:41.859Z,0.00
2023-08-10T02:48:41.806Z,0.00
2023-08-10T02:49:41.789Z,0.00
2023-08-10T02:50:42.350Z,0.00
2023-08-10T02:51:41.864Z,0.00
2023-08-10T02:52:41.759Z,0.00
2023-08-10T02:53:41.800Z,0.00
2023-08-10T02:54:41.703Z,0.00
2023-08-10T02:55:41.744Z,0.00
2023-08-10T02:56:41.808Z,0.00
2023-08-10T02:57:41.781Z,0.00
2023-08-10T02:58:41.638Z,0.00
2023-08-10T02:59:41.768Z,0.00
2023-08-10T03:00:41.671Z,0.00
2023-08-10T03:01:41.676Z,0.00
2023-08-10T03:02:41.748Z,0.00
2023-08-10T03:03:41.578Z,0.00
2023-08-10T03:04:41.707Z,0.00
2023-08-10T03:05:41.669Z,0.00
2023-08-10T03:06:41.680Z,0.00
2023-08-10T03:07:41.655Z,0.00
2023-08-10T03:08:41.579Z,0.00
2023-08-10T03:09:41.585Z,0.00
2023-08-10T03:10:41.614Z,0.00
2023-08-10T03:11:41.587Z,0.00
2023-08-10T03:12:41.586Z,0.00
2023-08-10T03:13:41.541Z,0.00
2023-08-10T03:14:41.524Z,0.00
2023-08-10T03:15:41.968Z,0.00
2023-08-10T03:16:41.498Z,0.00
2023-08-10T03:17:41.560Z,0.00
2023-08-10T03:18:41.551Z,0.00
2023-08-10T03:19:41.524Z,0.00
2023-08-10T03:20:41.465Z,0.00
2023-08-10T03:21:42.474Z,0.00
2023-08-10T03:22:41.571Z,0.00
2023-08-10T03:23:41.432Z,0.00
2023-08-10T03:24:41.507Z,0.00
2023-08-10T03:25:41.483Z,0.00
2023-08-10T03:26:41.542Z,0.00
2023-08-10T03:27:41.442Z,0.00
2023-08-10T03:28:41.436Z,0.00
2023-08-10T03:29:41.516Z,0.00
2023-08-10T03:30:42.436Z,0.00
2023-08-10T03:31:41.544Z,0.00
2023-08-10T03:32:41.567Z,0.00
2023-08-10T03:33:41.371Z,0.00
2023-08-10T03:34:41.400Z,0.00
2023-08-10T03:35:42.079Z,0.00
2023-08-10T03:36:41.385Z,0.00
2023-08-10T03:37:41.393Z,0.00
2023-08-10T03:38:41.459Z,0.00
2023-08-10T03:39:41.285Z,0.00
2023-08-10T03:40:41.259Z,1.00
2023-08-10T03:41:41.336Z,0.00
2023-08-10T03:42:42.482Z,0.00
2023-08-10T03:43:41.297Z,1.00
2023-08-10T03:44:41.212Z,1.00
2023-08-10T03:45:41.247Z,1.00
2023-08-10T03:46:41.310Z,1.00
2023-08-10T03:47:41.206Z,1.00
2023-08-10T03:48:42.004Z,1.00
2023-08-10T03:49:41.231Z,2.00
2023-08-10T03:50:41.181Z,0.00
2023-08-10T03:51:41.191Z,2.00
2023-08-10T03:52:41.154Z,2.00
2023-08-10T03:53:41.118Z,1.00
2023-08-10T03:54:41.078Z,1.00
2023-08-10T03:55:41.153Z,1.00
2023-08-10T03:56:41.029Z,1.00
2023-08-10T03:57:41.067Z,1.00
2023-08-10T03:58:41.879Z,2.00
2023-08-10T03:59:41.111Z,2.00
2023-08-10T04:00:41.444Z,2.00
2023-08-10T04:01:41.068Z,2.00
2023-08-10T04:02:41.008Z,7.00
2023-08-10T04:03:41.084Z,5.00
2023-08-10T04:04:41.061Z,6.00
2023-08-10T04:05:40.934Z,7.00
2023-08-10T04:06:41.103Z,8.00
2023-08-10T04:07:41.051Z,9.00
2023-08-10T04:08:41.038Z,9.00
2023-08-10T04:09:41.000Z,7.00
2023-08-10T04:10:40.957Z,9.00
2023-08-10T04:11:40.903Z,10.00
2023-08-10T04:12:41.501Z,11.00
2023-08-10T04:13:40.963Z,17.00
2023-08-10T04:14:40.922Z,17.00
2023-08-10T04:15:40.897Z,16.00
2023-08-10T04:16:40.979Z,22.00
2023-08-10T04:17:40.872Z,20.00
2023-08-10T04:18:40.902Z,20.00
2023-08-10T04:19:40.865Z,21.00
2023-08-10T04:20:40.831Z,20.00
2023-08-10T04:21:41.453Z,26.00
2023-08-10T04:22:40.872Z,24.00
2023-08-10T04:23:40.842Z,35.00
2023-08-10T04:24:40.749Z,26.00
2023-08-10T04:25:40.801Z,34.00
2023-08-10T04:26:40.777Z,34.00
2023-08-10T04:27:40.747Z,38.00
2023-08-10T04:28:40.812Z,39.00
2023-08-10T04:29:40.769Z,47.00
2023-08-10T04:30:40.768Z,41.00
2023-08-10T04:31:40.706Z,47.00
2023-08-10T04:32:40.672Z,50.00
2023-08-10T04:33:40.686Z,48.00
2023-08-10T04:34:40.686Z,50.00
2023-08-10T04:35:40.681Z,57.00
2023-08-10T04:36:40.637Z,54.00
2023-08-10T04:37:40.628Z,68.00
2023-08-10T04:38:40.796Z,70.00
2023-08-10T04:39:40.863Z,68.00
2023-08-10T04:40:40.596Z,69.00
2023-08-10T04:41:40.628Z,82.00
2023-08-10T04:42:40.638Z,85.00
2023-08-10T04:43:40.670Z,85.00
2023-08-10T04:44:40.602Z,95.00
2023-08-10T04:45:40.578Z,102.00
2023-08-10T04:46:40.673Z,81.00
2023-08-10T04:47:40.665Z,117.00
2023-08-10T04:48:40.553Z,100.00
2023-08-10T04:49:40.526Z,152.00
2023-08-10T04:50:40.572Z,98.00
2023-08-10T04:51:40.574Z,134.00
2023-08-10T04:52:40.543Z,122.00
2023-08-10T04:53:40.513Z,174.00
2023-08-10T04:54:40.477Z,153.00
2023-08-10T04:55:40.552Z,167.00
2023-08-10T04:56:40.497Z,198.00
2023-08-10T04:57:41.502Z,166.00
2023-08-10T04:58:40.538Z,200.00
2023-08-10T04:59:41.017Z,202.00
2023-08-10T05:00:40.486Z,232.00
2023-08-10T05:01:40.563Z,165.00
2023-08-10T05:02:40.531Z,179.00
2023-08-10T05:03:40.401Z,200.00
2023-08-10T05:04:40.364Z,258.00
2023-08-10T05:05:40.425Z,242.00
2023-08-10T05:06:41.504Z,262.00
2023-08-10T05:07:40.424Z,250.00
2023-08-10T05:08:40.329Z,235.00
2023-08-10T05:09:55.722Z,296.00
2023-08-10T05:10:40.393Z,186.00
2023-08-10T05:11:40.910Z,349.00
2023-08-10T05:12:40.292Z,289.00
2023-08-10T05:13:40.288Z,383.00
2023-08-10T05:14:40.297Z,341.00
2023-08-10T05:15:40.293Z,362.00
2023-08-10T05:16:40.364Z,418.00
2023-08-10T05:17:40.488Z,433.00
2023-08-10T05:18:40.290Z,398.00
2023-08-10T05:19:40.374Z,414.00
2023-08-10T05:20:40.330Z,403.00
2023-08-10T05:21:40.304Z,369.00
2023-08-10T05:22:41.003Z,387.00
2023-08-10T05:23:40.227Z,420.00
2023-08-10T05:24:40.173Z,362.00
2023-08-10T05:25:40.190Z,388.00
2023-08-10T05:26:40.252Z,397.00
2023-08-10T05:27:40.192Z,410.00
2023-08-10T05:28:40.145Z,403.00
2023-08-10T05:29:40.140Z,404.00
2023-08-10T05:30:40.514Z,301.00
2023-08-10T05:31:40.299Z,353.00
2023-08-10T05:32:40.180Z,383.00
2023-08-10T05:33:40.876Z,260.00
2023-08-10T05:34:40.129Z,411.00
2023-08-10T05:35:41.003Z,374.00
2023-08-10T05:36:40.094Z,371.00
2023-08-10T05:37:40.031Z,234.00
2023-08-10T05:38:40.204Z,369.00
2023-08-10T05:39:41.507Z,444.00
2023-08-10T05:40:40.046Z,332.00
2023-08-10T05:41:40.101Z,230.00
2023-08-10T05:42:40.856Z,112.00
2023-08-10T05:43:40.005Z,357.00
2023-08-10T05:44:40.013Z,395.00
2023-08-10T05:45:40.011Z,506.00
2023-08-10T05:46:40.020Z,461.00
2023-08-10T05:47:40.091Z,528.00
2023-08-10T05:48:39.984Z,528.00
2023-08-10T05:49:39.956Z,425.00
2023-08-10T05:50:40.010Z,574.00
2023-08-10T05:51:40.046Z,584.00
2023-08-10T05:52:39.965Z,547.00
2023-08-10T05:53:39.969Z,549.00
2023-08-10T05:54:39.896Z,675.00
2023-08-10T05:55:40.061Z,532.00
2023-08-10T05:56:40.488Z,655.00
2023-08-10T05:57:40.048Z,648.00
2023-08-10T05:58:39.937Z,681.00
2023-08-10T05:59:39.893Z,718.00
2023-08-10T06:00:39.866Z,759.00
2023-08-10T06:01:39.945Z,807.00
2023-08-10T06:02:39.903Z,570.00
2023-08-10T06:03:40.591Z,551.00
2023-08-10T06:04:39.794Z,471.00
2023-08-10T06:05:39.837Z,449.00
2023-08-10T06:06:39.859Z,470.00
2023-08-10T06:07:39.844Z,508.00
2023-08-10T06:08:39.841Z,465.00
2023-08-10T06:09:39.856Z,458.00
2023-08-10T06:10:39.754Z,421.00
2023-08-10T06:11:48.161Z,419.00
2023-08-10T06:12:39.672Z,394.00
2023-08-10T06:13:39.850Z,395.00
2023-08-10T06:14:39.802Z,392.00
2023-08-10T06:15:39.764Z,385.00
2023-08-10T06:16:40.524Z,361.00
2023-08-10T06:17:39.816Z,341.00
2023-08-10T06:18:39.839Z,340.00
2023-08-10T06:19:39.726Z,301.00
2023-08-10T06:20:39.660Z,275.00
2023-08-10T06:21:39.643Z,258.00
2023-08-10T06:22:39.670Z,246.00
2023-08-10T06:23:39.613Z,241.00
2023-08-10T06:24:39.643Z,236.00
2023-08-10T06:25:39.610Z,227.00
2023-08-10T06:26:39.577Z,221.00
2023-08-10T06:27:39.593Z,217.00
2023-08-10T06:28:39.611Z,213.00
2023-08-10T06:29:39.543Z,212.00
2023-08-10T06:30:39.550Z,210.00
2023-08-10T06:31:39.605Z,208.00
2023-08-10T06:32:39.587Z,208.00
2023-08-10T06:33:39.557Z,208.00
2023-08-10T06:34:40.030Z,209.00
2023-08-10T06:35:39.494Z,209.00
2023-08-10T06:36:39.503Z,209.00
2023-08-10T06:37:39.509Z,202.00
2023-08-10T06:38:39.591Z,205.00
2023-08-10T06:39:39.538Z,203.00
2023-08-10T06:40:40.039Z,203.00
2023-08-10T06:41:39.506Z,203.00
2023-08-10T06:42:39.662Z,203.00
2023-08-10T06:43:39.537Z,203.00
2023-08-10T06:44:39.494Z,202.00
2023-08-10T06:45:39.446Z,201.00
2023-08-10T06:46:39.473Z,203.00
2023-08-10T06:47:39.467Z,210.00
2023-08-10T06:48:40.065Z,207.00
2023-08-10T06:49:39.448Z,209.00
2023-08-10T06:50:39.310Z,210.00
2023-08-10T06:51:39.372Z,215.00
2023-08-10T06:52:39.340Z,216.00
2023-08-10T06:53:39.472Z,224.00
2023-08-10T06:54:39.276Z,222.00
2023-08-10T06:55:39.260Z,229.00
2023-08-10T06:56:39.590Z,226.00
2023-08-10T06:57:39.224Z,233.00
2023-08-10T07:00:39.184Z,239.00
2023-08-10T07:01:39.318Z,245.00
2023-08-10T07:02:40.059Z,248.00
2023-08-10T07:03:39.192Z,255.00
2023-08-10T07:04:39.159Z,253.00
2023-08-10T07:05:39.135Z,254.00
2023-08-10T07:06:39.255Z,256.00
2023-08-10T07:07:39.173Z,248.00
2023-08-10T07:08:39.235Z,250.00
2023-08-10T07:09:39.097Z,250.00
2023-08-10T07:10:39.184Z,250.00
2023-08-10T07:11:39.157Z,255.00
2023-08-10T07:12:39.121Z,254.00
2023-08-10T07:13:39.079Z,254.00
2023-08-10T07:14:39.055Z,258.00
2023-08-10T07:15:39.087Z,265.00
2023-08-10T07:16:39.106Z,267.00
2023-08-10T07:17:39.068Z,271.00
2023-08-10T07:18:39.005Z,273.00
2023-08-10T07:19:38.979Z,276.00
2023-08-10T07:20:40.883Z,278.00
2023-08-10T07:21:39.010Z,282.00
2023-08-10T07:22:40.748Z,286.00
2023-08-10T07:23:39.008Z,289.00
2023-08-10T07:24:38.980Z,287.00
2023-08-10T07:25:39.534Z,290.00
2023-08-10T07:26:38.962Z,296.00
2023-08-10T07:27:38.921Z,300.00
2023-08-10T07:28:39.009Z,305.00
2023-08-10T07:29:38.952Z,308.00
2023-08-10T07:30:38.972Z,310.00
2023-08-10T07:31:39.013Z,314.00
2023-08-10T07:32:39.028Z,316.00
2023-08-10T07:33:38.944Z,319.00
2023-08-10T07:34:38.935Z,322.00
2023-08-10T07:35:38.963Z,324.00
2023-08-10T07:36:38.945Z,327.00
2023-08-10T07:37:38.924Z,329.00
2023-08-10T07:38:39.187Z,336.00
2023-08-10T07:39:38.855Z,335.00
2023-08-10T07:40:38.823Z,336.00
2023-08-10T07:41:38.989Z,338.00
2023-08-10T07:42:38.858Z,343.00
2023-08-10T07:43:38.905Z,347.00
2023-08-10T07:44:38.880Z,351.00
2023-08-10T07:45:38.846Z,357.00
2023-08-10T07:46:38.994Z,359.00
2023-08-10T07:47:38.877Z,359.00
2023-08-10T07:48:38.866Z,362.00
2023-08-10T07:49:38.805Z,365.00
2023-08-10T07:50:38.701Z,370.00
2023-08-10T07:51:38.881Z,375.00
2023-08-10T07:52:38.834Z,371.00
2023-08-10T07:53:38.747Z,370.00
2023-08-10T07:54:38.792Z,379.00
2023-08-10T07:55:38.770Z,385.00
2023-08-10T07:56:38.812Z,393.00
2023-08-10T07:57:38.793Z,401.00
2023-08-10T07:58:38.668Z,403.00
2023-08-10T07:59:38.713Z,413.00
2023-08-10T08:00:38.679Z,419.00
2023-08-10T08:01:38.820Z,429.00
2023-08-10T08:02:38.848Z,442.00
2023-08-10T08:03:38.812Z,455.00
2023-08-10T08:04:39.081Z,460.00
2023-08-10T08:05:38.703Z,458.00
2023-08-10T08:06:38.661Z,485.00
2023-08-10T08:07:38.641Z,480.00
2023-08-10T08:08:38.629Z,475.00
2023-08-10T08:09:38.596Z,494.00
2023-08-10T08:10:38.921Z,485.00
2023-08-10T08:11:38.967Z,493.00
2023-08-10T08:12:38.593Z,495.00
2023-08-10T08:13:39.479Z,495.00
2023-08-10T08:14:38.526Z,504.00
2023-08-10T08:15:38.580Z,509.00
2023-08-10T08:16:38.562Z,519.00
2023-08-10T08:17:38.518Z,519.00
2023-08-10T08:18:38.497Z,529.00
2023-08-10T08:19:38.547Z,533.00
2023-08-10T08:20:38.434Z,530.00
2023-08-10T08:21:38.494Z,531.00
2023-08-10T08:22:38.478Z,527.00
2023-08-10T08:23:38.439Z,537.00
2023-08-10T08:24:38.411Z,542.00
2023-08-10T08:25:40.396Z,546.00
2023-08-10T08:26:38.550Z,555.00
2023-08-10T08:27:38.423Z,558.00
2023-08-10T08:28:38.379Z,569.00
2023-08-10T08:29:38.419Z,554.00
2023-08-10T08:30:38.419Z,628.00
2023-08-10T08:31:38.318Z,549.00
2023-08-10T08:33:38.366Z,576.00
2023-08-10T08:34:38.386Z,691.00
2023-08-10T08:35:38.556Z,714.00
2023-08-10T08:36:38.296Z,612.00
2023-08-10T08:37:38.215Z,630.00
2023-08-10T08:38:38.230Z,635.00
2023-08-10T08:39:38.300Z,627.00
2023-08-10T08:40:39.053Z,639.00
2023-08-10T08:41:38.199Z,626.00
2023-08-10T08:42:38.322Z,662.00
2023-08-10T08:43:38.197Z,607.00
2023-08-10T08:44:38.165Z,653.00
2023-08-10T08:45:38.376Z,647.00
2023-08-10T08:46:38.139Z,613.00
2023-08-10T08:47:38.257Z,671.00
2023-08-10T08:48:38.140Z,768.00
2023-08-10T08:49:38.100Z,609.00
2023-08-10T08:50:38.116Z,739.00
2023-08-10T08:51:38.216Z,709.00
2023-08-10T08:52:38.105Z,650.00
2023-08-10T08:53:38.178Z,564.00
2023-08-10T08:54:38.074Z,763.00
2023-08-10T08:55:38.090Z,670.00
2023-08-10T08:56:38.061Z,722.00
2023-08-10T08:57:38.142Z,666.00
2023-08-10T08:58:38.567Z,761.00
2023-08-10T08:59:38.027Z,521.00
2023-08-10T09:00:38.065Z,601.00
2023-08-10T09:01:38.112Z,669.00
2023-08-10T09:02:38.266Z,631.00
2023-08-10T09:03:38.022Z,758.00
2023-08-10T09:04:37.976Z,656.00
2023-08-10T09:05:38.026Z,328.00
2023-08-10T09:06:37.960Z,856.00
2023-08-10T09:07:37.968Z,694.00
2023-08-10T09:08:37.940Z,309.00
2023-08-10T09:09:37.913Z,796.00
2023-08-10T09:10:37.930Z,756.00
2023-08-10T09:11:37.932Z,744.00
2023-08-10T09:12:37.942Z,726.00
2023-08-10T09:13:37.872Z,714.00
2023-08-10T09:14:37.887Z,711.00
2023-08-10T09:15:37.914Z,711.00
2023-08-10T09:16:37.895Z,713.00
2023-08-10T09:17:37.854Z,714.00
2023-08-10T09:18:37.873Z,714.00
2023-08-10T09:19:37.882Z,711.00
2023-08-10T09:20:37.861Z,707.00
2023-08-10T09:21:37.796Z,714.00
2023-08-10T09:22:37.846Z,715.00
2023-08-10T09:23:37.808Z,718.00
2023-08-10T09:24:37.827Z,716.00
2023-08-10T09:25:39.353Z,714.00
2023-08-10T09:26:37.817Z,712.00
2023-08-10T09:27:37.799Z,705.00
2023-08-10T09:28:37.855Z,700.00
2023-08-10T09:29:37.763Z,697.00
2023-08-10T09:30:37.706Z,700.00
2023-08-10T09:31:37.777Z,701.00
2023-08-10T09:32:37.773Z,701.00
2023-08-10T09:33:37.774Z,697.00
2023-08-10T09:34:37.678Z,696.00
2023-08-10T09:35:37.741Z,695.00
2023-08-10T09:36:37.639Z,697.00
2023-08-10T09:37:37.674Z,696.00
2023-08-10T09:38:37.765Z,695.00
2023-08-10T09:39:37.747Z,696.00
2023-08-10T09:40:37.697Z,696.00
2023-08-10T09:41:37.681Z,697.00
2023-08-10T09:42:37.615Z,693.00
2023-08-10T09:43:37.575Z,693.00
2023-08-10T09:44:37.787Z,695.00
2023-08-10T09:45:37.557Z,698.00
2023-08-10T09:46:37.592Z,698.00
2023-08-10T09:47:37.574Z,696.00
2023-08-10T09:48:37.528Z,699.00
2023-08-10T09:49:37.585Z,703.00
2023-08-10T09:50:37.557Z,705.00
2023-08-10T09:51:37.551Z,701.00
2023-08-10T09:52:37.505Z,701.00
2023-08-10T09:53:37.486Z,708.00
2023-08-10T09:54:37.453Z,706.00
2023-08-10T09:55:37.473Z,709.00
2023-08-10T09:56:37.473Z,710.00
2023-08-10T09:57:37.467Z,712.00
2023-08-10T09:58:37.499Z,713.00
2023-08-10T09:59:37.470Z,717.00
2023-08-10T10:00:37.442Z,717.00
2023-08-10T10:01:37.479Z,721.00
2023-08-10T10:02:37.493Z,726.00
2023-08-10T10:03:37.430Z,728.00
2023-08-10T10:04:37.547Z,727.00
2023-08-10T10:05:37.336Z,731.00
2023-08-10T10:06:37.448Z,733.00
2023-08-10T10:07:37.416Z,739.00
2023-08-10T10:08:37.376Z,741.00
2023-08-10T10:09:37.370Z,741.00
2023-08-10T10:10:37.416Z,744.00
2023-08-10T10:11:39.350Z,752.00
2023-08-10T10:12:38.011Z,753.00
2023-08-10T10:13:37.316Z,755.00
2023-08-10T10:14:37.283Z,761.00
2023-08-10T10:15:37.388Z,764.00
2023-08-10T10:16:37.350Z,768.00
2023-08-10T10:17:37.277Z,772.00
2023-08-10T10:18:37.269Z,775.00
2023-08-10T10:19:37.228Z,774.00
2023-08-10T10:20:37.297Z,780.00
2023-08-10T10:21:37.270Z,781.00
2023-08-10T10:22:37.252Z,784.00
2023-08-10T10:23:37.195Z,788.00
2023-08-10T10:24:37.198Z,798.00
2023-08-10T10:25:37.230Z,797.00
2023-08-10T10:26:37.215Z,807.00
2023-08-10T10:27:37.188Z,813.00
2023-08-10T10:28:37.128Z,813.00
2023-08-10T10:29:37.102Z,811.00
2023-08-10T10:30:37.208Z,817.00
2023-08-10T10:31:37.132Z,820.00
2023-08-10T10:32:37.143Z,825.00
2023-08-10T10:33:37.073Z,836.00
2023-08-10T10:34:37.064Z,840.00
2023-08-10T10:35:37.134Z,842.00
2023-08-10T10:36:37.182Z,844.00
2023-08-10T10:37:37.047Z,848.00
2023-08-10T10:38:37.037Z,856.00
2023-08-10T10:39:37.061Z,860.00
2023-08-10T10:40:37.004Z,869.00
2023-08-10T10:41:37.055Z,872.00
2023-08-10T10:42:37.477Z,880.00
2023-08-10T10:43:37.041Z,887.00
2023-08-10T10:44:37.011Z,884.00
2023-08-10T10:45:37.065Z,881.00
2023-08-10T10:46:37.147Z,891.00
2023-08-10T10:47:36.985Z,897.00
2023-08-10T10:48:37.030Z,912.00
2023-08-10T10:49:36.902Z,916.00
2023-08-10T10:50:36.908Z,911.00
2023-08-10T10:51:36.957Z,924.00
2023-08-10T10:52:37.031Z,935.00
2023-08-10T10:53:36.958Z,945.00
2023-08-10T10:54:36.933Z,961.00
2023-08-10T10:55:36.989Z,970.00
2023-08-10T10:56:36.914Z,977.00
2023-08-10T10:57:37.611Z,987.00
2023-08-10T10:58:36.860Z,993.00
2023-08-10T10:59:36.865Z,1002.00
2023-08-10T11:00:37.743Z,1010.00
2023-08-10T11:01:36.902Z,1021.00
2023-08-10T11:02:37.100Z,1025.00
2023-08-10T11:03:36.845Z,1032.00
2023-08-10T11:04:36.837Z,1041.00
2023-08-10T11:05:36.984Z,1043.00
2023-08-10T11:06:36.874Z,1050.00
2023-08-10T11:07:36.909Z,1059.00
2023-08-10T11:08:36.741Z,1070.00
2023-08-10T11:09:36.841Z,1077.00
2023-08-10T11:10:36.779Z,1081.00
2023-08-10T11:11:36.817Z,1087.00
2023-08-10T11:12:36.748Z,1093.00
2023-08-10T11:13:36.776Z,1109.00
2023-08-10T11:14:36.708Z,1111.00
2023-08-10T11:15:36.679Z,1109.00
2023-08-10T11:16:36.814Z,1126.00
2023-08-10T11:17:47.902Z,1129.00
2023-08-10T11:18:36.794Z,1140.00
2023-08-10T11:19:36.727Z,1142.00
2023-08-10T11:20:36.637Z,1152.00
2023-08-10T11:21:36.620Z,1157.00
2023-08-10T11:22:36.686Z,1159.00
2023-08-10T11:23:36.624Z,1166.00
2023-08-10T11:24:36.669Z,1170.00
2023-08-10T11:25:36.603Z,1168.00
2023-08-10T11:26:36.609Z,1177.00
2023-08-10T11:27:37.392Z,1185.00
2023-08-10T11:28:36.545Z,1186.00
2023-08-10T11:29:36.570Z,1186.00
2023-08-10T11:30:37.245Z,1189.00
2023-08-10T11:31:42.878Z,1187.00
2023-08-10T11:32:36.596Z,1189.00
2023-08-10T11:33:36.557Z,1193.00
2023-08-10T11:34:36.528Z,1193.00
2023-08-10T11:35:36.474Z,1192.00
2023-08-10T11:36:36.483Z,1188.00
2023-08-10T11:37:36.498Z,1183.00
2023-08-10T11:38:36.605Z,1187.00
2023-08-10T11:39:36.504Z,1173.00
2023-08-10T11:40:36.424Z,1175.00
2023-08-10T11:41:36.385Z,1171.00
2023-08-10T11:42:36.590Z,1170.00
2023-08-10T11:43:36.386Z,1169.00
2023-08-10T11:44:36.367Z,1171.00
2023-08-10T11:45:36.393Z,1171.00
2023-08-10T11:46:36.405Z,1171.00
2023-08-10T11:47:45.739Z,1174.00
2023-08-10T11:48:36.427Z,1174.00
2023-08-10T11:49:36.890Z,1164.00
2023-08-10T11:50:36.456Z,1162.00
2023-08-10T11:51:36.425Z,1163.00
2023-08-10T11:52:36.313Z,1159.00
2023-08-10T11:53:36.392Z,1159.00
2023-08-10T11:54:36.763Z,1152.00
2023-08-10T11:55:37.618Z,1153.00
2023-08-10T11:56:36.284Z,1159.00
2023-08-10T11:57:36.255Z,1153.00
2023-08-10T11:58:36.445Z,1153.00
2023-08-10T11:59:36.430Z,1151.00
2023-08-10T12:00:36.263Z,1153.00
2023-08-10T12:01:36.426Z,1147.00
2023-08-10T12:02:36.290Z,1147.00
2023-08-10T12:03:37.139Z,1148.00
2023-08-10T12:04:38.029Z,1142.00
2023-08-10T12:05:36.143Z,1140.00
2023-08-10T12:06:36.172Z,1138.00
2023-08-10T12:07:36.138Z,1137.00
2023-08-10T12:08:36.268Z,1131.00
2023-08-10T12:09:36.622Z,1122.00
2023-08-10T12:10:36.115Z,1126.00
2023-08-10T12:11:36.178Z,1126.00
2023-08-10T12:12:36.245Z,1120.00
2023-08-10T12:13:36.177Z,1118.00
2023-08-10T12:14:36.190Z,1111.00
2023-08-10T12:15:36.116Z,1112.00
2023-08-10T12:16:36.099Z,1108.00
2023-08-10T12:17:36.132Z,1105.00
2023-08-10T12:18:36.182Z,1102.00
2023-08-10T12:19:36.055Z,1101.00
2023-08-10T12:20:36.024Z,1098.00
2023-08-10T12:21:35.987Z,1093.00
2023-08-10T12:22:36.069Z,1090.00
2023-08-10T12:23:36.065Z,1084.00
2023-08-10T12:24:35.990Z,1078.00
2023-08-10T12:25:36.096Z,1077.00
2023-08-10T12:26:35.995Z,1067.00
2023-08-10T12:27:36.482Z,1073.00
2023-08-10T12:28:36.518Z,1064.00
2023-08-10T12:29:36.033Z,1058.00
2023-08-10T12:30:36.072Z,1054.00
2023-08-10T12:31:36.030Z,1050.00
2023-08-10T12:32:35.930Z,1046.00
2023-08-10T12:33:37.097Z,1039.00
2023-08-10T12:34:35.934Z,1029.00
2023-08-10T12:35:35.936Z,1030.00
2023-08-10T12:36:36.612Z,1020.00
2023-08-10T12:37:35.917Z,1015.00
2023-08-10T12:38:35.856Z,1010.00
2023-08-10T12:39:35.859Z,1004.00
2023-08-10T12:40:35.806Z,998.00
2023-08-10T12:41:35.885Z,995.00
2023-08-10T12:42:36.466Z,987.00
2023-08-10T12:43:35.855Z,980.00
2023-08-10T12:44:35.748Z,974.00
2023-08-10T12:45:35.798Z,967.00